sensor_id;sensor_type;location;lat;lon;timestamp;P1;durP1;ratioP1;P2;durP2;ratioP2
37445;SDS011;23307;51.136;14.942;2023-11-22T00:00:41;23.70;;;20.33;;
37445;SDS011;23307;51.136;14.942;2023-11-22T00:03:07;25.93;;;20.77;;
37445;SDS011;23307;51.136;14.942;2023-11-22T00:05:32;24.43;;;21.20;;
37445;SDS011;23307;51.136;14.942;2023-11-22T00:07:58;25.93;;;20.43;;
37445;SDS011;23307;51.136;14.942;2023-11-22T00:10:23;25.67;;;20.53;;
37445;SDS011;23307;51.136;14.942;2023-11-22T00:12:49;28.80;;;22.57;;
37445;SDS011;23307;51.136;14.942;2023-11-22T00:15:15;25.70;;;21.07;;
37445;SDS011;23307;51.136;14.942;2023-11-22T00:17:43;28.60;;;22.40;;
37445;SDS011;23307;51.136;14.942;2023-11-22T00:20:10;28.67;;;21.43;;
37445;SDS011;23307;51.136;14.942;2023-11-22T00:22:36;26.47;;;20.80;;
37445;SDS011;23307;51.136;14.942;2023-11-22T00:25:01;26.33;;;21.80;;
37445;SDS011;23307;51.136;14.942;2023-11-22T00:27:28;27.33;;;21.60;;
37445;SDS011;23307;51.136;14.942;2023-11-22T00:29:55;28.50;;;21.80;;
37445;SDS011;23307;51.136;14.942;2023-11-22T00:32:20;26.30;;;21.07;;
37445;SDS011;23307;51.136;14.942;2023-11-22T00:34:46;27.17;;;22.23;;
37445;SDS011;23307;51.136;14.942;2023-11-22T00:37:12;26.97;;;21.93;;
37445;SDS011;23307;51.136;14.942;2023-11-22T00:39:38;27.30;;;22.30;;
37445;SDS011;23307;51.136;14.942;2023-11-22T00:42:04;27.10;;;21.47;;
37445;SDS011;23307;51.136;14.942;2023-11-22T00:44:30;29.67;;;22.30;;
37445;SDS011;23307;51.136;14.942;2023-11-22T00:46:56;27.70;;;21.67;;
37445;SDS011;23307;51.136;14.942;2023-11-22T00:49:22;29.47;;;22.73;;
37445;SDS011;23307;51.136;14.942;2023-11-22T00:51:48;26.10;;;22.00;;
37445;SDS011;23307;51.136;14.942;2023-11-22T00:54:13;26.27;;;21.77;;
37445;SDS011;23307;51.136;14.942;2023-11-22T00:56:40;26.90;;;21.70;;
37445;SDS011;23307;51.136;14.942;2023-11-22T00:59:05;28.07;;;21.93;;
37445;SDS011;23307;51.136;14.942;2023-11-22T01:01:31;26.70;;;20.97;;
37445;SDS011;23307;51.136;14.942;2023-11-22T01:03:57;26.27;;;21.53;;
37445;SDS011;23307;51.136;14.942;2023-11-22T01:06:23;27.50;;;22.07;;
37445;SDS011;23307;51.136;14.942;2023-11-22T01:08:49;27.80;;;22.07;;
37445;SDS011;23307;51.136;14.942;2023-11-22T01:11:14;25.27;;;20.90;;
37445;SDS011;23307;51.136;14.942;2023-11-22T01:13:40;23.63;;;20.20;;
37445;SDS011;23307;51.136;14.942;2023-11-22T01:16:07;24.30;;;20.10;;
37445;SDS011;23307;51.136;14.942;2023-11-22T01:18:33;25.07;;;20.50;;
37445;SDS011;23307;51.136;14.942;2023-11-22T01:20:59;26.97;;;19.77;;
37445;SDS011;23307;51.136;14.942;2023-11-22T01:23:25;25.90;;;21.03;;
37445;SDS011;23307;51.136;14.942;2023-11-22T01:25:52;24.80;;;20.07;;
37445;SDS011;23307;51.136;14.942;2023-11-22T01:28:18;24.70;;;19.73;;
37445;SDS011;23307;51.136;14.942;2023-11-22T01:30:44;25.53;;;21.03;;
37445;SDS011;23307;51.136;14.942;2023-11-22T01:33:11;25.63;;;20.33;;
37445;SDS011;23307;51.136;14.942;2023-11-22T01:35:36;25.17;;;20.33;;
37445;SDS011;23307;51.136;14.942;2023-11-22T01:38:03;26.23;;;20.90;;
37445;SDS011;23307;51.136;14.942;2023-11-22T01:40:29;26.67;;;20.87;;
37445;SDS011;23307;51.136;14.942;2023-11-22T01:42:58;26.53;;;21.53;;
37445;SDS011;23307;51.136;14.942;2023-11-22T01:45:23;24.27;;;20.30;;
37445;SDS011;23307;51.136;14.942;2023-11-22T01:47:50;24.30;;;20.63;;
37445;SDS011;23307;51.136;14.942;2023-11-22T01:50:16;25.40;;;20.70;;
37445;SDS011;23307;51.136;14.942;2023-11-22T01:52:42;25.87;;;20.47;;
37445;SDS011;23307;51.136;14.942;2023-11-22T01:55:08;26.40;;;20.93;;
37445;SDS011;23307;51.136;14.942;2023-11-22T01:57:34;27.37;;;21.00;;
37445;SDS011;23307;51.136;14.942;2023-11-22T02:00:04;24.87;;;20.40;;
37445;SDS011;23307;51.136;14.942;2023-11-22T02:02:32;26.30;;;21.37;;
37445;SDS011;23307;51.136;14.942;2023-11-22T02:04:58;25.70;;;20.60;;
37445;SDS011;23307;51.136;14.942;2023-11-22T02:07:24;27.00;;;21.23;;
37445;SDS011;23307;51.136;14.942;2023-11-22T02:09:52;26.23;;;21.07;;
37445;SDS011;23307;51.136;14.942;2023-11-22T02:12:18;26.60;;;21.53;;
37445;SDS011;23307;51.136;14.942;2023-11-22T02:14:44;26.07;;;21.03;;
37445;SDS011;23307;51.136;14.942;2023-11-22T02:17:10;27.30;;;21.10;;
37445;SDS011;23307;51.136;14.942;2023-11-22T02:19:36;26.80;;;21.20;;
37445;SDS011;23307;51.136;14.942;2023-11-22T02:22:02;26.63;;;20.97;;
37445;SDS011;23307;51.136;14.942;2023-11-22T02:24:27;26.57;;;21.70;;
37445;SDS011;23307;51.136;14.942;2023-11-22T02:26:53;27.50;;;22.80;;
37445;SDS011;23307;51.136;14.942;2023-11-22T02:29:18;28.07;;;21.53;;
37445;SDS011;23307;51.136;14.942;2023-11-22T02:31:45;25.37;;;20.30;;
37445;SDS011;23307;51.136;14.942;2023-11-22T02:34:10;26.83;;;19.80;;
37445;SDS011;23307;51.136;14.942;2023-11-22T02:36:36;25.90;;;20.80;;
37445;SDS011;23307;51.136;14.942;2023-11-22T02:39:02;27.30;;;21.50;;
37445;SDS011;23307;51.136;14.942;2023-11-22T02:41:28;28.93;;;23.03;;
37445;SDS011;23307;51.136;14.942;2023-11-22T02:43:54;29.57;;;21.83;;
37445;SDS011;23307;51.136;14.942;2023-11-22T02:46:20;26.53;;;21.23;;
37445;SDS011;23307;51.136;14.942;2023-11-22T02:48:46;30.13;;;22.30;;
37445;SDS011;23307;51.136;14.942;2023-11-22T02:51:11;28.63;;;22.53;;
37445;SDS011;23307;51.136;14.942;2023-11-22T02:53:38;29.23;;;22.27;;
37445;SDS011;23307;51.136;14.942;2023-11-22T02:56:08;27.30;;;21.03;;
37445;SDS011;23307;51.136;14.942;2023-11-22T02:58:34;28.37;;;21.93;;
37445;SDS011;23307;51.136;14.942;2023-11-22T03:01:00;28.30;;;21.57;;
37445;SDS011;23307;51.136;14.942;2023-11-22T03:03:25;26.10;;;20.93;;
37445;SDS011;23307;51.136;14.942;2023-11-22T03:05:51;30.07;;;21.80;;
37445;SDS011;23307;51.136;14.942;2023-11-22T03:08:16;28.17;;;22.00;;
37445;SDS011;23307;51.136;14.942;2023-11-22T03:10:42;27.43;;;22.53;;
37445;SDS011;23307;51.136;14.942;2023-11-22T03:13:07;30.90;;;22.23;;
37445;SDS011;23307;51.136;14.942;2023-11-22T03:15:33;31.07;;;22.60;;
37445;SDS011;23307;51.136;14.942;2023-11-22T03:17:59;29.90;;;22.90;;
37445;SDS011;23307;51.136;14.942;2023-11-22T03:20:26;29.27;;;23.40;;
37445;SDS011;23307;51.136;14.942;2023-11-22T03:22:52;33.17;;;24.37;;
37445;SDS011;23307;51.136;14.942;2023-11-22T03:25:17;31.33;;;24.00;;
37445;SDS011;23307;51.136;14.942;2023-11-22T03:27:43;31.93;;;23.67;;
37445;SDS011;23307;51.136;14.942;2023-11-22T03:30:09;29.93;;;23.23;;
37445;SDS011;23307;51.136;14.942;2023-11-22T03:32:37;34.67;;;24.43;;
37445;SDS011;23307;51.136;14.942;2023-11-22T03:35:04;34.23;;;24.63;;
37445;SDS011;23307;51.136;14.942;2023-11-22T03:37:31;35.37;;;24.33;;
37445;SDS011;23307;51.136;14.942;2023-11-22T03:39:57;35.83;;;24.87;;
37445;SDS011;23307;51.136;14.942;2023-11-22T03:42:23;32.30;;;24.20;;
37445;SDS011;23307;51.136;14.942;2023-11-22T03:44:48;33.73;;;25.17;;
37445;SDS011;23307;51.136;14.942;2023-11-22T03:47:14;35.23;;;24.40;;
37445;SDS011;23307;51.136;14.942;2023-11-22T03:49:40;31.27;;;23.93;;
37445;SDS011;23307;51.136;14.942;2023-11-22T03:52:07;31.20;;;23.27;;
37445;SDS011;23307;51.136;14.942;2023-11-22T03:54:34;31.30;;;23.67;;
37445;SDS011;23307;51.136;14.942;2023-11-22T03:57:00;30.57;;;23.53;;
37445;SDS011;23307;51.136;14.942;2023-11-22T03:59:26;28.17;;;22.17;;
37445;SDS011;23307;51.136;14.942;2023-11-22T04:01:52;28.33;;;21.83;;
37445;SDS011;23307;51.136;14.942;2023-11-22T04:04:17;28.90;;;21.67;;
37445;SDS011;23307;51.136;14.942;2023-11-22T04:06:43;29.97;;;21.20;;
37445;SDS011;23307;51.136;14.942;2023-11-22T04:09:08;28.53;;;21.57;;
37445;SDS011;23307;51.136;14.942;2023-11-22T04:11:37;28.80;;;22.33;;
37445;SDS011;23307;51.136;14.942;2023-11-22T04:14:03;27.23;;;21.60;;
37445;SDS011;23307;51.136;14.942;2023-11-22T04:16:28;29.33;;;21.97;;
37445;SDS011;23307;51.136;14.942;2023-11-22T04:18:54;32.13;;;23.80;;
37445;SDS011;23307;51.136;14.942;2023-11-22T04:21:19;29.90;;;22.50;;
37445;SDS011;23307;51.136;14.942;2023-11-22T04:23:45;30.07;;;22.17;;
37445;SDS011;23307;51.136;14.942;2023-11-22T04:26:10;31.90;;;23.90;;
37445;SDS011;23307;51.136;14.942;2023-11-22T04:28:36;29.83;;;22.17;;
37445;SDS011;23307;51.136;14.942;2023-11-22T04:31:01;26.07;;;21.33;;
37445;SDS011;23307;51.136;14.942;2023-11-22T04:33:28;26.67;;;21.10;;
37445;SDS011;23307;51.136;14.942;2023-11-22T04:35:54;27.53;;;21.77;;
37445;SDS011;23307;51.136;14.942;2023-11-22T04:38:21;30.33;;;22.13;;
37445;SDS011;23307;51.136;14.942;2023-11-22T04:40:46;29.53;;;21.90;;
37445;SDS011;23307;51.136;14.942;2023-11-22T04:43:12;29.40;;;21.57;;
37445;SDS011;23307;51.136;14.942;2023-11-22T04:45:38;28.90;;;21.57;;
37445;SDS011;23307;51.136;14.942;2023-11-22T04:48:04;29.13;;;21.70;;
37445;SDS011;23307;51.136;14.942;2023-11-22T04:50:31;28.50;;;22.10;;
37445;SDS011;23307;51.136;14.942;2023-11-22T04:52:57;30.20;;;22.00;;
37445;SDS011;23307;51.136;14.942;2023-11-22T04:55:22;32.23;;;23.17;;
37445;SDS011;23307;51.136;14.942;2023-11-22T04:57:48;30.10;;;22.00;;
37445;SDS011;23307;51.136;14.942;2023-11-22T05:00:14;30.77;;;21.97;;
37445;SDS011;23307;51.136;14.942;2023-11-22T05:02:40;30.17;;;22.63;;
37445;SDS011;23307;51.136;14.942;2023-11-22T05:05:09;29.43;;;21.93;;
37445;SDS011;23307;51.136;14.942;2023-11-22T05:07:37;31.90;;;23.33;;
37445;SDS011;23307;51.136;14.942;2023-11-22T05:10:04;31.70;;;22.87;;
37445;SDS011;23307;51.136;14.942;2023-11-22T05:12:30;30.23;;;22.10;;
37445;SDS011;23307;51.136;14.942;2023-11-22T05:14:56;31.10;;;22.40;;
37445;SDS011;23307;51.136;14.942;2023-11-22T05:17:22;33.07;;;22.67;;
37445;SDS011;23307;51.136;14.942;2023-11-22T05:19:47;32.80;;;23.13;;
37445;SDS011;23307;51.136;14.942;2023-11-22T05:22:14;32.17;;;23.17;;
37445;SDS011;23307;51.136;14.942;2023-11-22T05:24:39;31.67;;;22.73;;
37445;SDS011;23307;51.136;14.942;2023-11-22T05:27:06;27.83;;;21.77;;
37445;SDS011;23307;51.136;14.942;2023-11-22T05:29:32;30.40;;;22.47;;
37445;SDS011;23307;51.136;14.942;2023-11-22T05:31:58;30.10;;;21.20;;
37445;SDS011;23307;51.136;14.942;2023-11-22T05:34:24;30.97;;;22.63;;
37445;SDS011;23307;51.136;14.942;2023-11-22T05:36:50;29.10;;;21.27;;
37445;SDS011;23307;51.136;14.942;2023-11-22T05:39:15;28.20;;;21.53;;
37445;SDS011;23307;51.136;14.942;2023-11-22T05:41:42;30.67;;;22.30;;
37445;SDS011;23307;51.136;14.942;2023-11-22T05:44:08;31.20;;;21.83;;
37445;SDS011;23307;51.136;14.942;2023-11-22T05:46:33;29.90;;;21.47;;
37445;SDS011;23307;51.136;14.942;2023-11-22T05:48:59;29.40;;;21.57;;
37445;SDS011;23307;51.136;14.942;2023-11-22T05:51:25;30.50;;;20.20;;
37445;SDS011;23307;51.136;14.942;2023-11-22T05:53:51;28.83;;;21.03;;
37445;SDS011;23307;51.136;14.942;2023-11-22T05:56:16;29.63;;;22.23;;
37445;SDS011;23307;51.136;14.942;2023-11-22T05:58:42;32.27;;;22.13;;
37445;SDS011;23307;51.136;14.942;2023-11-22T06:01:08;30.43;;;21.93;;
37445;SDS011;23307;51.136;14.942;2023-11-22T06:03:34;29.60;;;21.07;;
37445;SDS011;23307;51.136;14.942;2023-11-22T06:06:00;31.10;;;20.80;;
37445;SDS011;23307;51.136;14.942;2023-11-22T06:08:27;28.37;;;21.03;;
37445;SDS011;23307;51.136;14.942;2023-11-22T06:10:53;32.63;;;22.17;;
37445;SDS011;23307;51.136;14.942;2023-11-22T06:13:22;27.03;;;20.17;;
37445;SDS011;23307;51.136;14.942;2023-11-22T06:15:47;29.67;;;22.03;;
37445;SDS011;23307;51.136;14.942;2023-11-22T06:18:13;29.13;;;21.57;;
37445;SDS011;23307;51.136;14.942;2023-11-22T06:20:40;30.00;;;21.10;;
37445;SDS011;23307;51.136;14.942;2023-11-22T06:23:06;29.20;;;21.87;;
37445;SDS011;23307;51.136;14.942;2023-11-22T06:25:31;29.97;;;21.57;;
37445;SDS011;23307;51.136;14.942;2023-11-22T06:27:57;30.80;;;22.50;;
37445;SDS011;23307;51.136;14.942;2023-11-22T06:30:22;29.40;;;22.67;;
37445;SDS011;23307;51.136;14.942;2023-11-22T06:32:49;32.63;;;22.13;;
37445;SDS011;23307;51.136;14.942;2023-11-22T06:35:15;31.00;;;22.87;;
37445;SDS011;23307;51.136;14.942;2023-11-22T06:37:42;32.37;;;22.40;;
37445;SDS011;23307;51.136;14.942;2023-11-22T06:40:09;34.47;;;23.23;;
37445;SDS011;23307;51.136;14.942;2023-11-22T06:42:37;32.40;;;23.17;;
37445;SDS011;23307;51.136;14.942;2023-11-22T06:45:04;33.50;;;23.77;;
37445;SDS011;23307;51.136;14.942;2023-11-22T06:47:31;29.80;;;22.53;;
37445;SDS011;23307;51.136;14.942;2023-11-22T06:49:57;31.97;;;23.33;;
37445;SDS011;23307;51.136;14.942;2023-11-22T06:52:23;32.63;;;22.83;;
37445;SDS011;23307;51.136;14.942;2023-11-22T06:54:49;33.27;;;23.33;;
37445;SDS011;23307;51.136;14.942;2023-11-22T06:57:14;28.50;;;21.87;;
37445;SDS011;23307;51.136;14.942;2023-11-22T06:59:40;31.50;;;21.43;;
37445;SDS011;23307;51.136;14.942;2023-11-22T07:02:06;30.63;;;22.33;;
37445;SDS011;23307;51.136;14.942;2023-11-22T07:04:32;34.07;;;22.17;;
37445;SDS011;23307;51.136;14.942;2023-11-22T07:06:59;27.40;;;21.23;;
37445;SDS011;23307;51.136;14.942;2023-11-22T07:09:25;28.30;;;21.10;;
37445;SDS011;23307;51.136;14.942;2023-11-22T07:11:51;27.50;;;20.73;;
37445;SDS011;23307;51.136;14.942;2023-11-22T07:14:17;26.80;;;19.40;;
37445;SDS011;23307;51.136;14.942;2023-11-22T07:16:44;26.73;;;20.87;;
37445;SDS011;23307;51.136;14.942;2023-11-22T07:19:10;26.07;;;19.80;;
37445;SDS011;23307;51.136;14.942;2023-11-22T07:21:37;26.60;;;20.33;;
37445;SDS011;23307;51.136;14.942;2023-11-22T07:24:03;24.87;;;18.73;;
37445;SDS011;23307;51.136;14.942;2023-11-22T07:26:31;24.83;;;17.93;;
37445;SDS011;23307;51.136;14.942;2023-11-22T07:28:58;23.37;;;18.63;;
37445;SDS011;23307;51.136;14.942;2023-11-22T07:31:23;26.30;;;19.37;;
37445;SDS011;23307;51.136;14.942;2023-11-22T07:33:50;25.60;;;18.60;;
37445;SDS011;23307;51.136;14.942;2023-11-22T07:36:16;27.00;;;18.47;;
37445;SDS011;23307;51.136;14.942;2023-11-22T07:38:42;25.13;;;18.83;;
37445;SDS011;23307;51.136;14.942;2023-11-22T07:41:08;24.53;;;18.77;;
37445;SDS011;23307;51.136;14.942;2023-11-22T07:43:33;26.13;;;18.80;;
37445;SDS011;23307;51.136;14.942;2023-11-22T07:45:59;22.37;;;18.27;;
37445;SDS011;23307;51.136;14.942;2023-11-22T07:48:26;22.17;;;17.77;;
37445;SDS011;23307;51.136;14.942;2023-11-22T07:50:53;23.00;;;17.43;;
37445;SDS011;23307;51.136;14.942;2023-11-22T07:53:19;22.40;;;17.70;;
37445;SDS011;23307;51.136;14.942;2023-11-22T07:55:45;22.00;;;17.23;;
37445;SDS011;23307;51.136;14.942;2023-11-22T07:58:10;21.57;;;17.07;;
37445;SDS011;23307;51.136;14.942;2023-11-22T08:00:36;22.43;;;16.93;;
37445;SDS011;23307;51.136;14.942;2023-11-22T08:03:02;20.07;;;15.93;;
37445;SDS011;23307;51.136;14.942;2023-11-22T08:05:31;22.63;;;17.30;;
37445;SDS011;23307;51.136;14.942;2023-11-22T08:08:02;25.53;;;17.63;;
37445;SDS011;23307;51.136;14.942;2023-11-22T08:10:32;24.70;;;18.03;;
37445;SDS011;23307;51.136;14.942;2023-11-22T08:13:01;22.83;;;18.70;;
37445;SDS011;23307;51.136;14.942;2023-11-22T08:15:28;23.73;;;18.50;;
37445;SDS011;23307;51.136;14.942;2023-11-22T08:17:54;21.43;;;16.27;;
37445;SDS011;23307;51.136;14.942;2023-11-22T08:20:20;23.40;;;17.73;;
37445;SDS011;23307;51.136;14.942;2023-11-22T08:22:46;23.00;;;18.00;;
37445;SDS011;23307;51.136;14.942;2023-11-22T08:25:14;24.00;;;18.27;;
37445;SDS011;23307;51.136;14.942;2023-11-22T08:27:41;25.17;;;18.30;;
37445;SDS011;23307;51.136;14.942;2023-11-22T08:30:09;22.17;;;16.90;;
37445;SDS011;23307;51.136;14.942;2023-11-22T08:32:42;23.17;;;17.63;;
37445;SDS011;23307;51.136;14.942;2023-11-22T08:35:08;22.77;;;17.90;;
37445;SDS011;23307;51.136;14.942;2023-11-22T08:37:35;22.33;;;17.13;;
37445;SDS011;23307;51.136;14.942;2023-11-22T08:40:03;23.53;;;18.10;;
37445;SDS011;23307;51.136;14.942;2023-11-22T08:42:41;22.00;;;17.10;;
37445;SDS011;23307;51.136;14.942;2023-11-22T08:45:07;24.03;;;18.77;;
37445;SDS011;23307;51.136;14.942;2023-11-22T08:47:34;26.60;;;18.57;;
37445;SDS011;23307;51.136;14.942;2023-11-22T08:49:59;25.47;;;18.83;;
37445;SDS011;23307;51.136;14.942;2023-11-22T08:52:28;26.93;;;20.40;;
37445;SDS011;23307;51.136;14.942;2023-11-22T08:54:55;24.33;;;18.60;;
37445;SDS011;23307;51.136;14.942;2023-11-22T08:57:21;24.90;;;19.03;;
37445;SDS011;23307;51.136;14.942;2023-11-22T08:59:47;24.50;;;19.17;;
37445;SDS011;23307;51.136;14.942;2023-11-22T09:02:14;23.33;;;17.73;;
37445;SDS011;23307;51.136;14.942;2023-11-22T09:04:40;23.77;;;18.17;;
37445;SDS011;23307;51.136;14.942;2023-11-22T09:07:06;24.70;;;18.17;;
37445;SDS011;23307;51.136;14.942;2023-11-22T09:09:32;23.97;;;19.00;;
37445;SDS011;23307;51.136;14.942;2023-11-22T09:11:59;22.10;;;17.20;;
37445;SDS011;23307;51.136;14.942;2023-11-22T09:14:26;21.73;;;17.10;;
37445;SDS011;23307;51.136;14.942;2023-11-22T09:16:51;21.53;;;17.77;;
37445;SDS011;23307;51.136;14.942;2023-11-22T09:19:23;21.73;;;18.60;;
37445;SDS011;23307;51.136;14.942;2023-11-22T09:21:50;22.93;;;18.67;;
37445;SDS011;23307;51.136;14.942;2023-11-22T09:24:16;23.47;;;18.73;;
37445;SDS011;23307;51.136;14.942;2023-11-22T09:26:41;23.57;;;18.63;;
37445;SDS011;23307;51.136;14.942;2023-11-22T09:29:08;23.27;;;18.10;;
37445;SDS011;23307;51.136;14.942;2023-11-22T09:31:38;22.47;;;18.70;;
37445;SDS011;23307;51.136;14.942;2023-11-22T09:34:04;23.93;;;18.87;;
37445;SDS011;23307;51.136;14.942;2023-11-22T09:36:30;22.97;;;18.30;;
37445;SDS011;23307;51.136;14.942;2023-11-22T09:38:58;24.37;;;18.77;;
37445;SDS011;23307;51.136;14.942;2023-11-22T09:41:24;24.40;;;18.97;;
37445;SDS011;23307;51.136;14.942;2023-11-22T09:43:52;21.20;;;17.10;;
37445;SDS011;23307;51.136;14.942;2023-11-22T09:46:18;19.57;;;16.60;;
37445;SDS011;23307;51.136;14.942;2023-11-22T09:48:46;21.83;;;16.40;;
37445;SDS011;23307;51.136;14.942;2023-11-22T09:51:20;19.97;;;16.17;;
37445;SDS011;23307;51.136;14.942;2023-11-22T09:53:55;19.00;;;16.83;;
37445;SDS011;23307;51.136;14.942;2023-11-22T09:56:25;21.27;;;17.47;;
37445;SDS011;23307;51.136;14.942;2023-11-22T09:58:52;20.07;;;16.13;;
37445;SDS011;23307;51.136;14.942;2023-11-22T10:01:21;20.90;;;16.53;;
37445;SDS011;23307;51.136;14.942;2023-11-22T10:03:47;22.37;;;17.73;;
37445;SDS011;23307;51.136;14.942;2023-11-22T10:06:13;20.27;;;16.90;;
37445;SDS011;23307;51.136;14.942;2023-11-22T10:08:40;21.77;;;17.03;;
37445;SDS011;23307;51.136;14.942;2023-11-22T10:11:06;21.40;;;16.53;;
37445;SDS011;23307;51.136;14.942;2023-11-22T10:13:32;25.17;;;19.00;;
37445;SDS011;23307;51.136;14.942;2023-11-22T10:16:08;20.53;;;16.43;;
37445;SDS011;23307;51.136;14.942;2023-11-22T10:18:41;23.23;;;17.23;;
37445;SDS011;23307;51.136;14.942;2023-11-22T10:23:50;34.07;;;24.60;;
37445;SDS011;23307;51.136;14.942;2023-11-22T10:26:18;27.13;;;20.53;;
37445;SDS011;23307;51.136;14.942;2023-11-22T10:28:43;31.67;;;23.37;;
37445;SDS011;23307;51.136;14.942;2023-11-22T10:31:09;22.70;;;17.93;;
37445;SDS011;23307;51.136;14.942;2023-11-22T10:33:44;20.90;;;17.27;;
37445;SDS011;23307;51.136;14.942;2023-11-22T10:36:11;21.57;;;16.83;;
37445;SDS011;23307;51.136;14.942;2023-11-22T10:38:37;25.03;;;20.40;;
37445;SDS011;23307;51.136;14.942;2023-11-22T10:41:03;23.60;;;19.60;;
37445;SDS011;23307;51.136;14.942;2023-11-22T10:43:30;22.67;;;18.00;;
37445;SDS011;23307;51.136;14.942;2023-11-22T10:45:58;19.33;;;16.80;;
37445;SDS011;23307;51.136;14.942;2023-11-22T10:48:25;19.07;;;15.60;;
37445;SDS011;23307;51.136;14.942;2023-11-22T10:50:52;21.30;;;15.73;;
37445;SDS011;23307;51.136;14.942;2023-11-22T10:53:25;21.43;;;16.67;;
37445;SDS011;23307;51.136;14.942;2023-11-22T10:55:59;21.20;;;17.37;;
37445;SDS011;23307;51.136;14.942;2023-11-22T10:58:36;20.03;;;16.47;;
37445;SDS011;23307;51.136;14.942;2023-11-22T11:01:09;23.07;;;16.90;;
37445;SDS011;23307;51.136;14.942;2023-11-22T11:03:36;18.63;;;15.80;;
37445;SDS011;23307;51.136;14.942;2023-11-22T11:06:05;21.30;;;16.83;;
37445;SDS011;23307;51.136;14.942;2023-11-22T11:08:34;20.37;;;16.73;;
37445;SDS011;23307;51.136;14.942;2023-11-22T11:11:03;19.87;;;16.43;;
37445;SDS011;23307;51.136;14.942;2023-11-22T11:13:30;20.17;;;16.60;;
37445;SDS011;23307;51.136;14.942;2023-11-22T11:15:56;19.60;;;16.73;;
37445;SDS011;23307;51.136;14.942;2023-11-22T11:18:23;19.13;;;15.70;;
37445;SDS011;23307;51.136;14.942;2023-11-22T11:23:19;21.53;;;15.73;;
37445;SDS011;23307;51.136;14.942;2023-11-22T11:25:51;19.93;;;15.57;;
37445;SDS011;23307;51.136;14.942;2023-11-22T11:28:19;18.57;;;14.87;;
37445;SDS011;23307;51.136;14.942;2023-11-22T11:30:45;17.93;;;14.97;;
37445;SDS011;23307;51.136;14.942;2023-11-22T11:33:13;22.70;;;18.93;;
37445;SDS011;23307;51.136;14.942;2023-11-22T11:35:43;14.77;;;12.40;;
37445;SDS011;23307;51.136;14.942;2023-11-22T11:38:13;39.33;;;24.27;;
37445;SDS011;23307;51.136;14.942;2023-11-22T11:40:40;14.53;;;11.83;;
37445;SDS011;23307;51.136;14.942;2023-11-22T11:43:07;17.97;;;12.97;;
37445;SDS011;23307;51.136;14.942;2023-11-22T11:45:37;14.73;;;11.87;;
37445;SDS011;23307;51.136;14.942;2023-11-22T11:48:04;15.90;;;13.33;;
37445;SDS011;23307;51.136;14.942;2023-11-22T11:50:33;17.03;;;13.73;;
37445;SDS011;23307;51.136;14.942;2023-11-22T11:52:59;15.80;;;13.47;;
37445;SDS011;23307;51.136;14.942;2023-11-22T11:55:26;19.07;;;14.13;;
37445;SDS011;23307;51.136;14.942;2023-11-22T11:57:55;16.50;;;13.00;;
37445;SDS011;23307;51.136;14.942;2023-11-22T12:00:21;18.63;;;14.97;;
37445;SDS011;23307;51.136;14.942;2023-11-22T12:02:49;17.57;;;13.93;;
37445;SDS011;23307;51.136;14.942;2023-11-22T12:05:15;17.50;;;13.73;;
37445;SDS011;23307;51.136;14.942;2023-11-22T12:07:43;16.27;;;13.10;;
37445;SDS011;23307;51.136;14.942;2023-11-22T12:10:09;18.03;;;15.80;;
37445;SDS011;23307;51.136;14.942;2023-11-22T12:12:35;20.20;;;15.93;;
37445;SDS011;23307;51.136;14.942;2023-11-22T12:15:00;14.80;;;13.07;;
37445;SDS011;23307;51.136;14.942;2023-11-22T12:17:26;13.63;;;11.83;;
37445;SDS011;23307;51.136;14.942;2023-11-22T12:19:53;15.87;;;13.20;;
37445;SDS011;23307;51.136;14.942;2023-11-22T12:22:18;12.30;;;10.03;;
37445;SDS011;23307;51.136;14.942;2023-11-22T12:24:45;12.63;;;11.00;;
37445;SDS011;23307;51.136;14.942;2023-11-22T12:27:11;18.00;;;15.00;;
37445;SDS011;23307;51.136;14.942;2023-11-22T12:29:37;12.43;;;10.27;;
37445;SDS011;23307;51.136;14.942;2023-11-22T12:32:02;13.03;;;10.50;;
37445;SDS011;23307;51.136;14.942;2023-11-22T12:34:28;13.07;;;10.83;;
37445;SDS011;23307;51.136;14.942;2023-11-22T12:36:55;10.83;;;9.70;;
37445;SDS011;23307;51.136;14.942;2023-11-22T12:39:21;11.80;;;9.83;;
37445;SDS011;23307;51.136;14.942;2023-11-22T12:41:48;14.17;;;10.50;;
37445;SDS011;23307;51.136;14.942;2023-11-22T12:44:18;13.37;;;11.10;;
37445;SDS011;23307;51.136;14.942;2023-11-22T12:47:02;12.73;;;9.80;;
37445;SDS011;23307;51.136;14.942;2023-11-22T12:49:42;14.30;;;11.70;;
37445;SDS011;23307;51.136;14.942;2023-11-22T12:52:10;13.47;;;11.10;;
37445;SDS011;23307;51.136;14.942;2023-11-22T12:54:37;14.93;;;12.00;;
37445;SDS011;23307;51.136;14.942;2023-11-22T12:57:03;13.93;;;11.53;;
37445;SDS011;23307;51.136;14.942;2023-11-22T12:59:37;12.23;;;10.30;;
37445;SDS011;23307;51.136;14.942;2023-11-22T13:02:05;16.07;;;11.03;;
37445;SDS011;23307;51.136;14.942;2023-11-22T13:04:31;12.03;;;10.37;;
37445;SDS011;23307;51.136;14.942;2023-11-22T13:06:58;11.20;;;9.60;;
37445;SDS011;23307;51.136;14.942;2023-11-22T13:09:24;12.90;;;10.63;;
37445;SDS011;23307;51.136;14.942;2023-11-22T13:11:50;15.80;;;11.93;;
37445;SDS011;23307;51.136;14.942;2023-11-22T13:14:17;12.40;;;10.23;;
37445;SDS011;23307;51.136;14.942;2023-11-22T13:16:43;18.73;;;15.43;;
37445;SDS011;23307;51.136;14.942;2023-11-22T13:19:10;12.87;;;9.13;;
37445;SDS011;23307;51.136;14.942;2023-11-22T13:21:36;12.03;;;9.40;;
37445;SDS011;23307;51.136;14.942;2023-11-22T13:24:01;11.93;;;10.17;;
37445;SDS011;23307;51.136;14.942;2023-11-22T13:26:28;13.20;;;11.37;;
37445;SDS011;23307;51.136;14.942;2023-11-22T13:28:54;12.90;;;10.37;;
37445;SDS011;23307;51.136;14.942;2023-11-22T13:31:20;14.23;;;11.40;;
37445;SDS011;23307;51.136;14.942;2023-11-22T13:33:46;14.67;;;10.90;;
37445;SDS011;23307;51.136;14.942;2023-11-22T13:36:12;12.30;;;10.87;;
37445;SDS011;23307;51.136;14.942;2023-11-22T13:38:42;11.60;;;10.07;;
37445;SDS011;23307;51.136;14.942;2023-11-22T13:41:07;12.93;;;10.17;;
37445;SDS011;23307;51.136;14.942;2023-11-22T13:43:33;22.73;;;16.63;;
37445;SDS011;23307;51.136;14.942;2023-11-22T13:46:00;16.93;;;11.70;;
37445;SDS011;23307;51.136;14.942;2023-11-22T13:48:25;15.93;;;11.33;;
37445;SDS011;23307;51.136;14.942;2023-11-22T13:50:51;15.73;;;12.07;;
37445;SDS011;23307;51.136;14.942;2023-11-22T13:53:16;15.93;;;12.37;;
37445;SDS011;23307;51.136;14.942;2023-11-22T13:55:46;15.67;;;11.60;;
37445;SDS011;23307;51.136;14.942;2023-11-22T13:58:12;12.50;;;10.07;;
37445;SDS011;23307;51.136;14.942;2023-11-22T14:00:38;12.23;;;9.93;;
37445;SDS011;23307;51.136;14.942;2023-11-22T14:03:03;11.87;;;9.50;;
37445;SDS011;23307;51.136;14.942;2023-11-22T14:05:31;11.57;;;10.07;;
37445;SDS011;23307;51.136;14.942;2023-11-22T14:07:59;11.23;;;9.57;;
37445;SDS011;23307;51.136;14.942;2023-11-22T14:10:25;12.17;;;9.90;;